Orbital elements of SKYSAT-C1
| Launched | 21 June 2016 |
| Flight ended | – |
| Launch site | Satish Dhawan Space Centre, India (Formerly Sriharikota Launching Range) |
| Owner | United States |
| NORAD ID | 41601 |
| Date fetched |
Epoch osculation |
Inc. [°] |
Ecc. | RA asc node [hr] |
Arg Peri. [°] |
Mean anom [°] |
Mean motion [rev/day] |
Abs. mag |
| Date fetched |
Epoch osculation |
Inc. [°] |
Ecc. | RA asc node [hr] |
Arg Peri. [°] |
Mean anom [°] |
Mean motion [rev/day] |
Abs. mag |
| 2026 May 01 17:56 | 2026 May 01 08:56:09 | 96.9603 | 0.00030 | 10.3765 | 153.1066 | 207.0336 | 15.35511 | – |
| 2026 Apr 30 17:56 | 2026 Apr 30 01:39:18 | 96.9608 | 0.00029 | 10.2943 | 156.2827 | 207.0336 | 15.35511 | – |
| 2026 Apr 29 17:57 | 2026 Apr 29 00:37:48 | 96.9612 | 0.00028 | 10.2286 | 158.6701 | 207.0336 | 15.35511 | – |
| 2026 Apr 28 17:56 | 2026 Apr 28 08:59:21 | 96.9615 | 0.00027 | 10.1876 | 159.6004 | 207.0336 | 15.35511 | – |
| 2026 Apr 27 17:58 | 2026 Apr 27 01:42:26 | 96.9620 | 0.00026 | 10.1055 | 163.0743 | 207.0336 | 15.35511 | – |
| 2026 Apr 26 17:58 | 2026 Apr 26 08:30:07 | 96.9620 | 0.00025 | 10.0603 | 164.7336 | 207.0336 | 15.35511 | – |
| 2026 Apr 25 17:58 | 2026 Apr 25 09:02:24 | 96.9619 | 0.00024 | 9.9987 | 165.9634 | 207.0336 | 15.35511 | – |
| 2026 Apr 24 17:59 | 2026 Apr 24 12:42:22 | 96.9622 | 0.00023 | 9.9453 | 168.6061 | 207.0336 | 15.35511 | – |
| 2026 Apr 23 17:57 | 2026 Apr 22 01:16:03 | 96.9620 | 0.00020 | 9.7893 | 175.1242 | 207.0336 | 15.35511 | – |
| 2026 Apr 22 17:57 | 2026 Apr 22 01:16:03 | 96.9620 | 0.00020 | 9.7893 | 175.1242 | 207.0336 | 15.35511 | – |
| 2026 Apr 21 17:57 | 2026 Apr 21 08:03:40 | 96.9621 | 0.00019 | 9.7441 | 177.4737 | 207.0336 | 15.35511 | – |
| 2026 Apr 20 17:57 | 2026 Apr 20 00:46:37 | 96.9622 | 0.00017 | 9.6619 | 181.6177 | 207.0336 | 15.35511 | – |
| 2026 Apr 19 17:58 | 2026 Apr 19 01:18:49 | 96.9622 | 0.00016 | 9.6003 | 184.2124 | 207.0336 | 15.35511 | – |
| 2026 Apr 18 17:56 | 2026 Apr 18 01:50:59 | 96.9624 | 0.00014 | 9.5387 | 188.4745 | 207.0336 | 15.35511 | – |
| 2026 Apr 16 17:57 | 2026 Apr 16 01:21:27 | 96.9630 | 0.00012 | 9.4114 | 195.1716 | 207.0336 | 15.35511 | – |
| 2026 Apr 14 17:57 | 2026 Apr 14 08:41:10 | 96.9639 | 0.00010 | 9.3046 | 204.3459 | 207.0336 | 15.35511 | – |
| 2026 Apr 13 17:57 | 2026 Apr 13 01:24:01 | 96.9642 | 0.00008 | 9.2225 | 213.3818 | 207.0336 | 15.35511 | – |
| 2026 Apr 12 17:57 | 2026 Apr 12 00:22:17 | 96.9645 | 0.00007 | 9.1568 | 223.2449 | 207.0336 | 15.35511 | – |
| 2026 Apr 11 17:57 | 2026 Apr 11 08:43:41 | 96.9645 | 0.00006 | 9.1157 | 227.4682 | 207.0336 | 15.35511 | – |
| 2026 Apr 10 17:58 | 2026 Apr 10 01:26:29 | 96.9647 | 0.00005 | 9.0336 | 243.6066 | 207.0336 | 15.35511 | – |
| 2026 Apr 09 18:01 | 2026 Apr 09 01:58:34 | 96.9645 | 0.00005 | 8.9720 | 261.5297 | 207.0336 | 15.35511 | – |
| 2026 Apr 08 17:57 | 2026 Apr 08 00:56:46 | 96.9644 | 0.00004 | 8.9063 | 280.3687 | 207.0336 | 15.35511 | – |
| 2026 Apr 07 17:57 | 2026 Apr 07 01:28:49 | 96.9643 | 0.00005 | 8.8446 | 299.9828 | 207.0336 | 15.35511 | – |
| 2026 Apr 06 17:57 | 2026 Apr 06 02:00:51 | 96.9644 | 0.00005 | 8.7830 | 316.5050 | 207.0336 | 15.35511 | – |
| 2026 Apr 05 17:56 | 2026 Apr 05 08:48:19 | 96.9644 | 0.00006 | 8.7378 | 326.5790 | 207.0336 | 15.35511 | – |
| 2026 Apr 04 17:57 | 2026 Apr 04 01:30:59 | 96.9647 | 0.00007 | 8.6557 | 338.1650 | 207.0336 | 15.35511 | – |